Time;durP1;ratioP1;P1;durP2;ratioP2;P2;SDS_P1;SDS_P2;PMS_P1;PMS_P2;Temp;Humidity;BMP_temperature;BMP_pressure;BME280_temperature;BME280_humidity;BME280_pressure;Samples;Min_cycle;Max_cycle;Signal;HPM_P1;HPM_P2
2022/09/04 00:01:01;;;;;;;5.88;2.30;;;16.90;58.90;;;;;;5043856;28;20581;-68
2022/09/04 00:03:57;;;;;;;6.13;2.47;;;16.90;59.10;;;;;;5042534;28;20131;-68
2022/09/04 00:06:28;;;;;;;5.93;2.50;;;16.80;59.20;;;;;;5028630;28;20045;-68
2022/09/04 00:09:15;;;;;;;3.92;2.38;;;16.80;59.40;;;;;;5020187;28;20135;-68
2022/09/04 00:11:46;;;;;;;4.40;2.17;;;16.80;59.20;;;;;;5031839;28;20048;-68
2022/09/04 00:14:15;;;;;;;5.97;2.00;;;16.80;59.40;;;;;;5008404;28;20048;-68
2022/09/04 00:16:53;;;;;;;6.50;2.42;;;16.70;59.60;;;;;;5034018;28;20057;-68
2022/09/04 00:19:27;;;;;;;;;;;16.70;59.40;;;;;;5026015;28;20060;-68
2022/09/04 00:21:56;;;;;;;4.82;2.08;;;16.70;59.70;;;;;;5046923;28;19943;-68
2022/09/04 00:24:39;;;;;;;5.07;2.15;;;16.70;59.20;;;;;;5042368;28;20048;-68
2022/09/04 00:27:26;;;;;;;7.97;2.13;;;16.70;59.40;;;;;;5037624;28;20557;-68
2022/09/04 00:30:04;;;;;;;5.22;2.17;;;16.60;59.90;;;;;;5031619;28;20584;-68
2022/09/04 00:32:33;;;;;;;4.30;2.05;;;16.60;60.00;;;;;;5040430;28;20040;-68
2022/09/04 00:35:21;;;;;;;5.10;1.98;;;16.60;60.00;;;;;;5049756;28;20041;-68
2022/09/04 00:38:01;;;;;;;6.63;2.20;;;16.50;60.50;;;;;;5029019;28;20736;-68
2022/09/04 00:40:38;;;;;;;7.13;2.45;;;16.50;61.00;;;;;;5044017;28;20069;-68
2022/09/04 00:43:28;;;;;;;5.03;2.00;;;16.40;60.80;;;;;;5028795;28;20052;-69
2022/09/04 00:46:16;;;;;;;5.40;2.33;;;16.50;61.10;;;;;;5049517;28;20051;-69
2022/09/04 00:49:00;;;;;;;4.00;2.13;;;16.40;61.30;;;;;;5044727;28;20115;-68
2022/09/04 00:52:04;;;;;;;4.35;2.05;;;16.40;61.00;;;;;;5045963;28;20048;-68
2022/09/04 00:54:46;;;;;;;4.97;2.38;;;16.40;61.20;;;;;;5037045;28;20041;-69
2022/09/04 00:57:36;;;;;;;3.83;2.00;;;16.40;61.50;;;;;;5046243;28;20133;-67
2022/09/04 01:00:07;;;;;;;5.88;2.30;;;16.30;61.60;;;;;;5029854;28;20068;-68
2022/09/04 01:02:49;;;;;;;5.35;2.53;;;16.40;61.40;;;;;;5027411;28;20132;-68
2022/09/04 01:05:21;;;;;;;7.03;2.50;;;16.40;61.60;;;;;;5041805;28;20152;-69
2022/09/04 01:08:09;;;;;;;5.80;2.20;;;16.40;61.90;;;;;;5049383;28;20557;-69
2022/09/04 01:10:43;;;;;;;4.88;2.45;;;16.30;61.90;;;;;;5038163;28;20383;-68
2022/09/04 01:13:37;;;;;;;4.18;1.90;;;16.30;62.80;;;;;;5036765;28;20053;-69
2022/09/04 01:16:26;;;;;;;5.75;2.42;;;16.20;62.10;;;;;;5047405;28;20490;-68
2022/09/04 01:19:12;;;;;;;4.28;2.08;;;16.20;62.30;;;;;;5037202;28;20056;-68
2022/09/04 01:22:02;;;;;;;4.35;2.33;;;16.10;62.80;;;;;;5040596;28;20478;-68
2022/09/04 01:24:46;;;;;;;5.60;2.47;;;16.10;63.10;;;;;;5041961;28;20052;-68
2022/09/04 01:27:31;;;;;;;5.40;2.30;;;16.00;63.10;;;;;;5028787;28;20044;-68
2022/09/04 01:30:14;;;;;;;4.22;2.30;;;15.90;62.70;;;;;;5027807;28;20523;-68
2022/09/04 01:33:18;;;;;;;5.97;2.72;;;16.00;62.40;;;;;;5046894;28;20049;-68
2022/09/04 01:36:08;;;;;;;7.68;2.90;;;15.90;62.90;;;;;;5034997;28;20041;-68
2022/09/04 01:38:52;;;;;;;7.50;2.53;;;15.90;62.80;;;;;;5014468;28;20047;-68
2022/09/04 01:41:52;;;;;;;5.00;2.60;;;15.90;62.60;;;;;;5031193;28;20159;-69
2022/09/04 01:44:17;;;;;;;5.53;2.75;;;15.80;63.10;;;;;;5019110;28;20042;-67
2022/09/04 01:46:44;;;;;;;5.70;2.50;;;15.80;62.90;;;;;;5038609;28;20114;-68
2022/09/04 01:49:42;;;;;;;9.25;2.58;;;15.70;63.80;;;;;;5053599;28;20136;-69
2022/09/04 01:52:46;;;;;;;4.40;2.28;;;15.70;63.50;;;;;;5021606;28;20477;-68
2022/09/04 01:55:15;;;;;;;4.13;2.67;;;15.70;64.50;;;;;;5039099;28;20497;-68
2022/09/04 01:57:47;;;;;;;5.63;2.38;;;15.60;64.30;;;;;;5026875;28;20049;-69
2022/09/04 02:00:17;;;;;;;4.78;2.50;;;15.60;64.10;;;;;;5031293;28;20657;-68
2022/09/04 02:02:53;;;;;;;5.03;2.20;;;15.60;64.30;;;;;;5027826;28;20049;-68
2022/09/04 02:05:31;;;;;;;6.03;2.80;;;15.70;64.80;;;;;;5046334;28;20055;-68
2022/09/04 02:08:02;;;;;;;5.95;2.78;;;15.70;64.70;;;;;;5030386;28;20406;-68
2022/09/04 02:10:49;;;;;;;5.70;2.17;;;15.70;64.50;;;;;;5050329;28;20071;-67
2022/09/04 02:14:03;;;;;;;8.00;3.10;;;15.70;64.20;;;;;;5041537;28;20083;-68
2022/09/04 02:16:47;;;;;;;5.15;2.78;;;15.70;64.20;;;;;;5035160;28;20081;-68
2022/09/04 02:19:22;;;;;;;4.55;2.30;;;15.80;64.00;;;;;;5043529;28;20037;-67
2022/09/04 02:21:50;;;;;;;6.28;2.33;;;15.80;64.40;;;;;;5047168;28;20083;-69
2022/09/04 02:24:38;;;;;;;7.13;2.65;;;15.70;64.50;;;;;;5043307;28;20508;-68
2022/09/04 02:27:30;;;;;;;5.77;2.53;;;15.70;64.50;;;;;;5036275;28;20078;-68
2022/09/04 02:30:04;;;;;;;6.55;2.60;;;15.60;64.40;;;;;;5049812;28;20072;-68
2022/09/04 02:32:36;;;;;;;5.07;2.42;;;15.50;64.50;;;;;;5042717;28;20257;-68
2022/09/04 02:35:39;;;;;;;5.47;2.35;;;15.60;64.20;;;;;;5032479;28;20037;-68
2022/09/04 02:38:21;;;;;;;4.72;2.53;;;15.50;65.00;;;;;;4991394;28;20049;-68
2022/09/04 02:41:12;;;;;;;4.40;2.28;;;15.40;64.70;;;;;;5053005;28;20045;-69
2022/09/04 02:44:05;;;;;;;4.88;2.67;;;15.40;65.10;;;;;;4989683;28;20084;-69
2022/09/04 02:46:47;;;;;;;6.63;3.00;;;15.40;65.20;;;;;;5025250;28;20041;-68
2022/09/04 02:49:48;;;;;;;3.80;2.15;;;15.30;65.40;;;;;;5040238;28;20083;-68
2022/09/04 02:53:08;;;;;;;8.93;2.78;;;15.30;65.10;;;;;;5045199;28;20045;-68
2022/09/04 02:56:01;;;;;;;3.90;2.47;;;15.30;66.00;;;;;;4948391;28;20043;-68
2022/09/04 02:58:43;;;;;;;5.65;2.13;;;15.30;65.70;;;;;;5032633;28;20033;-68
2022/09/04 03:01:23;;;;;;;5.43;2.92;;;15.30;66.10;;;;;;5065035;28;20056;-68
2022/09/04 03:03:58;;;;;;;9.20;2.70;;;15.30;65.60;;;;;;5051394;28;20040;-68
2022/09/04 03:06:48;;;;;;;5.35;2.67;;;15.30;65.60;;;;;;5050507;28;20160;-68
2022/09/04 03:09:35;;;;;;;6.45;2.50;;;15.20;65.80;;;;;;5031404;28;20041;-69
2022/09/04 03:12:25;;;;;;;9.40;3.72;;;15.20;65.40;;;;;;5044282;28;20060;-68
2022/09/04 03:15:02;;;;;;;6.05;2.20;;;15.10;66.10;;;;;;5042963;28;20188;-68
2022/09/04 03:18:20;;;;;;;5.93;2.72;;;15.10;66.20;;;;;;5046915;28;20048;-68
2022/09/04 03:20:56;;;;;;;;;;;15.10;66.40;;;;;;5004224;28;20041;-68
2022/09/04 03:23:40;;;;;;;4.90;2.55;;;15.10;66.20;;;;;;5050585;28;19913;-69
2022/09/04 03:26:17;;;;;;;4.43;2.90;;;15.10;66.40;;;;;;5043350;28;20078;-69
2022/09/04 03:29:08;;;;;;;6.32;2.75;;;15.10;66.50;;;;;;5039425;28;20045;-69
2022/09/04 03:31:37;;;;;;;6.13;2.70;;;15.00;66.60;;;;;;5045633;28;20052;-69
2022/09/04 03:34:03;;;;;;;;;;;15.00;66.50;;;;;;5051350;28;20037;-69
2022/09/04 03:36:44;;;;;;;5.95;2.63;;;15.10;66.60;;;;;;5035933;28;20000;-69
2022/09/04 03:39:30;;;;;;;10.20;2.85;;;15.00;66.70;;;;;;5043635;28;20060;-69
2022/09/04 03:42:19;;;;;;;3.88;2.47;;;15.00;66.70;;;;;;5051078;28;20044;-69
2022/09/04 03:45:14;;;;;;;8.20;2.70;;;15.00;66.80;;;;;;5041901;28;20454;-69
2022/09/04 03:47:57;;;;;;;7.43;2.95;;;15.00;66.80;;;;;;5019480;28;20058;-69
2022/09/04 03:50:29;;;;;;;4.13;2.40;;;15.00;67.00;;;;;;5044150;28;20052;-69
2022/09/04 03:53:11;;;;;;;5.40;2.75;;;15.00;66.80;;;;;;5029582;28;20090;-69
2022/09/04 03:55:55;;;;;;;5.65;2.58;;;15.00;67.00;;;;;;5038525;28;20444;-69
2022/09/04 03:58:41;;;;;;;9.68;2.90;;;14.90;67.00;;;;;;5048019;28;20048;-69
2022/09/04 04:01:19;;;;;;;4.78;2.60;;;14.90;66.80;;;;;;5031172;28;20417;-69
2022/09/04 04:04:03;;;;;;;6.18;2.65;;;14.90;67.30;;;;;;5060466;28;20128;-69
2022/09/04 04:06:49;;;;;;;5.13;3.20;;;14.80;67.40;;;;;;5044223;28;20041;-69
2022/09/04 04:09:14;;;;;;;4.80;3.00;;;14.80;67.40;;;;;;5053459;28;20107;-69
2022/09/04 04:12:12;;;;;;;5.60;2.88;;;14.80;67.50;;;;;;5065478;28;20057;-69
2022/09/04 04:14:41;;;;;;;5.05;2.85;;;14.80;67.50;;;;;;5012341;28;20045;-69
2022/09/04 04:17:07;;;;;;;6.22;2.85;;;14.70;67.70;;;;;;5047890;28;20037;-69
2022/09/04 04:19:52;;;;;;;6.47;3.10;;;14.70;67.60;;;;;;5039741;28;20036;-69
2022/09/04 04:22:45;;;;;;;5.50;3.05;;;14.80;67.60;;;;;;5033168;28;20040;-69
2022/09/04 04:25:24;;;;;;;5.57;2.90;;;14.70;68.20;;;;;;5039637;28;20128;-69
2022/09/04 04:28:18;;;;;;;6.97;3.15;;;14.70;68.40;;;;;;5023579;28;20063;-69
2022/09/04 04:30:52;;;;;;;7.95;3.38;;;14.70;68.60;;;;;;5040111;28;20486;-69
2022/09/04 04:33:37;;;;;;;7.55;2.90;;;14.70;68.20;;;;;;5036813;28;20048;-68
2022/09/04 04:36:16;;;;;;;7.45;3.10;;;14.70;68.10;;;;;;5045661;28;20041;-69
2022/09/04 04:39:08;;;;;;;5.38;3.13;;;14.70;68.50;;;;;;5019352;28;20357;-69
2022/09/04 04:42:03;;;;;;;5.25;2.80;;;14.70;68.40;;;;;;5044363;28;20356;-69
2022/09/04 04:47:50;;;;;;;5.75;3.20;;;14.80;68.00;;;;;;5034273;28;20091;-69
2022/09/04 04:50:39;;;;;;;7.57;3.03;;;14.80;68.30;;;;;;5044244;28;20063;-69
2022/09/04 04:53:18;;;;;;;6.18;3.28;;;14.70;68.70;;;;;;5032222;28;20052;-69
2022/09/04 04:55:48;;;;;;;4.85;2.97;;;14.70;68.60;;;;;;5026674;28;20473;-69
2022/09/04 04:58:44;;;;;;;4.72;3.10;;;14.70;68.80;;;;;;5048742;28;20048;-69
2022/09/04 05:01:28;;;;;;;9.73;3.17;;;14.70;68.90;;;;;;5037193;28;20037;-70
2022/09/04 05:03:59;;;;;;;8.50;2.65;;;14.80;68.50;;;;;;5048459;28;20894;-69
2022/09/04 05:06:40;;;;;;;5.82;3.00;;;14.80;68.20;;;;;;5049030;28;20049;-69
2022/09/04 05:09:21;;;;;;;5.00;3.10;;;14.80;68.20;;;;;;5033638;28;20076;-69
2022/09/04 05:11:50;;;;;;;6.45;3.17;;;14.80;68.60;;;;;;5031109;28;20049;-69
2022/09/04 05:14:32;;;;;;;6.10;3.17;;;14.80;68.60;;;;;;5041220;28;20040;-69
2022/09/04 05:17:22;;;;;;;7.18;3.45;;;14.80;68.50;;;;;;5042915;28;20080;-68
2022/09/04 05:20:27;;;;;;;5.65;3.17;;;14.80;68.80;;;;;;5036951;28;20049;-69
2022/09/04 05:23:12;;;;;;;6.55;2.95;;;14.70;69.20;;;;;;5034018;28;20069;-69
2022/09/04 05:25:56;;;;;;;7.18;3.28;;;14.80;69.20;;;;;;5047580;28;20044;-69
2022/09/04 05:28:53;;;;;;;5.78;3.03;;;14.80;69.60;;;;;;5046123;28;20044;-69
2022/09/04 05:31:39;;;;;;;7.20;2.95;;;14.90;69.30;;;;;;5044442;28;20099;-69
2022/09/04 05:34:42;;;;;;;5.72;3.13;;;14.90;69.00;;;;;;5063901;28;20040;-69
2022/09/04 05:37:27;;;;;;;8.98;3.10;;;14.90;69.40;;;;;;5045137;28;20048;-68
2022/09/04 05:40:05;;;;;;;6.80;2.97;;;14.90;70.00;;;;;;5039113;28;20085;-69
2022/09/04 05:42:47;;;;;;;6.43;3.20;;;14.90;69.50;;;;;;5031678;28;20053;-69
2022/09/04 05:45:23;;;;;;;6.38;3.33;;;15.00;69.50;;;;;;5028535;28;20362;-69
2022/09/04 05:48:24;;;;;;;7.25;2.78;;;15.00;69.20;;;;;;5009415;28;20053;-69
2022/09/04 05:51:03;;;;;;;7.32;3.08;;;15.00;69.30;;;;;;5038820;28;20146;-69
2022/09/04 05:53:40;;;;;;;7.18;3.25;;;15.00;69.40;;;;;;5047722;28;20118;-69
2022/09/04 05:56:21;;;;;;;5.73;2.70;;;15.10;69.80;;;;;;5029174;28;20079;-69
2022/09/04 05:59:06;;;;;;;6.63;2.80;;;15.10;70.00;;;;;;5047094;28;20041;-69
2022/09/04 06:01:56;;;;;;;6.47;3.50;;;15.10;69.70;;;;;;5033015;28;20050;-68
2022/09/04 06:04:46;;;;;;;8.73;3.60;;;15.10;70.00;;;;;;5023698;28;20056;-69
2022/09/04 06:07:21;;;;;;;5.82;3.22;;;15.20;70.30;;;;;;5046953;28;20455;-68
2022/09/04 06:10:03;;;;;;;6.78;3.30;;;15.30;70.00;;;;;;5021594;28;20056;-68
2022/09/04 06:12:54;;;;;;;6.28;3.65;;;15.30;70.10;;;;;;5019155;28;20059;-68
2022/09/04 06:15:43;;;;;;;8.13;3.70;;;15.30;69.90;;;;;;5047207;28;20475;-68
2022/09/04 06:18:15;;;;;;;8.23;3.08;;;15.30;70.40;;;;;;5023831;28;20463;-68
2022/09/04 06:20:47;;;;;;;8.02;3.17;;;15.40;70.10;;;;;;5030654;28;20099;-68
2022/09/04 06:23:19;;;;;;;10.10;3.90;;;15.50;70.00;;;;;;5046352;28;20055;-68
2022/09/04 06:25:56;;;;;;;5.97;3.40;;;15.60;70.40;;;;;;5043606;28;20052;-68
2022/09/04 06:28:47;;;;;;;7.78;3.40;;;15.60;69.40;;;;;;5056374;28;20157;-68
2022/09/04 06:31:19;;;;;;;5.72;3.10;;;15.80;69.30;;;;;;5043756;28;20087;-68
2022/09/04 06:33:51;;;;;;;7.50;3.60;;;15.80;69.50;;;;;;5052621;28;20431;-68
2022/09/04 06:36:37;;;;;;;5.30;3.38;;;15.90;69.10;;;;;;5031241;28;20106;-68
2022/09/04 06:39:29;;;;;;;6.30;3.40;;;15.90;69.30;;;;;;5005218;28;20083;-68
2022/09/04 06:42:03;;;;;;;7.80;3.53;;;16.00;69.40;;;;;;5029482;28;20120;-68
2022/09/04 06:44:45;;;;;;;7.00;3.72;;;16.00;69.20;;;;;;5008481;28;20136;-67
2022/09/04 06:47:41;;;;;;;5.78;3.65;;;16.10;69.10;;;;;;5043095;28;20060;-67
2022/09/04 06:50:29;;;;;;;7.18;3.30;;;16.20;68.80;;;;;;5031062;28;20059;-67
2022/09/04 06:53:26;;;;;;;5.28;2.90;;;16.30;69.00;;;;;;5050427;28;20096;-67
2022/09/04 06:56:01;;;;;;;6.07;3.33;;;16.30;68.60;;;;;;5039966;28;20067;-67
2022/09/04 06:59:12;;;;;;;6.22;3.90;;;16.40;68.50;;;;;;5033986;28;20062;-67
2022/09/04 07:01:42;;;;;;;5.75;3.42;;;16.50;68.50;;;;;;5006619;28;20086;-68
2022/09/04 07:04:30;;;;;;;6.25;2.78;;;16.60;68.30;;;;;;5022865;28;20146;-68
2022/09/04 07:07:02;;;;;;;;;;;16.60;67.80;;;;;;5011552;28;20081;-68
2022/09/04 07:09:31;;;;;;;6.28;3.72;;;16.60;67.80;;;;;;5031672;28;20008;-68
2022/09/04 07:12:18;;;;;;;5.80;3.97;;;16.70;68.10;;;;;;5047551;28;20110;-68
2022/09/04 07:15:19;;;;;;;6.65;3.80;;;16.70;67.70;;;;;;5043955;28;20047;-68
2022/09/04 07:17:55;;;;;;;7.20;3.40;;;16.80;67.80;;;;;;5067237;28;20124;-68
2022/09/04 07:20:40;;;;;;;7.05;4.18;;;16.90;67.50;;;;;;5042162;28;20050;-68
2022/09/04 07:23:14;;;;;;;6.60;3.65;;;16.90;67.90;;;;;;5040498;28;20079;-68
2022/09/04 07:25:55;;;;;;;8.07;3.42;;;17.00;67.50;;;;;;5010296;28;20057;-68
2022/09/04 07:29:09;;;;;;;7.93;3.78;;;17.10;67.50;;;;;;4990716;28;20045;-69
2022/09/04 07:31:56;;;;;;;10.43;3.63;;;17.10;67.40;;;;;;5026145;28;20063;-67
2022/09/04 07:34:36;;;;;;;8.07;3.80;;;17.30;67.10;;;;;;5036860;28;20041;-68
2022/09/04 07:37:23;;;;;;;4.97;3.60;;;17.30;67.40;;;;;;5011608;28;20069;-68
2022/09/04 07:39:59;;;;;;;9.70;3.75;;;17.40;66.90;;;;;;5031346;28;20041;-68
2022/09/04 07:42:27;;;;;;;6.55;3.40;;;17.40;67.00;;;;;;5000913;28;20045;-68
2022/09/04 07:44:53;;;;;;;6.50;4.15;;;17.50;66.50;;;;;;5006766;28;20045;-68
2022/09/04 07:47:25;;;;;;;6.85;3.50;;;17.60;66.50;;;;;;5027342;28;20070;-68
2022/09/04 07:50:14;;;;;;;6.75;3.70;;;17.60;66.60;;;;;;5015900;28;20079;-69
2022/09/04 07:53:04;;;;;;;6.07;3.28;;;17.70;66.40;;;;;;5026600;28;20049;-68
2022/09/04 07:55:32;;;;;;;8.05;4.07;;;17.80;66.30;;;;;;5027153;28;20068;-69
2022/09/04 07:58:11;;;;;;;;;;;17.90;65.90;;;;;;5049843;28;20041;-69
2022/09/04 08:00:57;;;;;;;8.48;3.95;;;17.90;65.90;;;;;;5034378;28;19913;-68
2022/09/04 08:03:53;;;;;;;7.40;3.72;;;18.00;66.20;;;;;;5008056;28;20049;-69
2022/09/04 08:06:48;;;;;;;8.00;3.70;;;18.10;66.00;;;;;;5015949;28;20045;-68
2022/09/04 08:09:36;;;;;;;6.22;3.60;;;18.20;66.20;;;;;;5037798;28;20040;-68
2022/09/04 08:12:07;;;;;;;7.65;3.80;;;18.30;65.60;;;;;;5048977;28;20370;-69
2022/09/04 08:14:36;;;;;;;9.60;4.28;;;18.30;65.20;;;;;;5025397;28;20052;-68
2022/09/04 08:17:27;;;;;;;6.15;3.75;;;18.40;65.30;;;;;;5045974;28;20175;-69
2022/09/04 08:20:17;;;;;;;9.77;3.90;;;18.50;65.40;;;;;;5058514;28;20045;-69
2022/09/04 08:23:05;;;;;;;8.38;3.80;;;18.50;64.90;;;;;;5043844;28;20051;-70
2022/09/04 08:25:45;;;;;;;8.27;3.95;;;18.60;65.20;;;;;;5026941;28;20063;-70
2022/09/04 08:28:26;;;;;;;7.32;3.60;;;18.70;65.60;;;;;;5039921;28;20056;-70
2022/09/04 08:31:13;;;;;;;8.43;3.90;;;18.90;65.00;;;;;;5036271;28;20064;-69
2022/09/04 08:33:52;;;;;;;10.57;3.55;;;18.90;64.30;;;;;;5048924;28;20049;-70
2022/09/04 08:36:31;;;;;;;7.88;3.83;;;19.00;64.00;;;;;;5025174;28;20048;-70
2022/09/04 08:39:05;;;;;;;9.05;3.92;;;19.10;64.50;;;;;;5040023;28;20502;-69
2022/09/04 08:41:36;;;;;;;6.63;4.00;;;19.10;63.90;;;;;;5049128;28;20048;-69
2022/09/04 08:44:21;;;;;;;6.07;3.50;;;19.20;63.50;;;;;;5049927;28;20055;-69
2022/09/04 08:47:06;;;;;;;6.25;3.45;;;19.30;63.50;;;;;;5044717;28;20110;-68
2022/09/04 08:49:47;;;;;;;11.88;3.97;;;19.30;63.10;;;;;;5026425;28;20049;-69
2022/09/04 08:52:22;;;;;;;7.13;3.60;;;19.40;63.30;;;;;;5054680;28;20512;-69
2022/09/04 08:54:48;;;;;;;8.90;3.63;;;19.50;62.90;;;;;;5030358;28;20051;-70
2022/09/04 08:57:38;;;;;;;7.95;4.25;;;19.50;62.50;;;;;;5046924;28;20382;-69
2022/09/04 09:00:11;;;;;;;8.25;3.58;;;19.60;62.50;;;;;;5028303;28;20041;-71
2022/09/04 09:02:58;;;;;;;8.90;3.70;;;19.70;62.80;;;;;;5015791;28;20139;-69
2022/09/04 09:05:39;;;;;;;6.38;3.22;;;19.80;62.20;;;;;;5042343;28;20116;-70
2022/09/04 09:08:30;;;;;;;6.50;3.63;;;19.90;62.00;;;;;;5040828;28;20041;-70
2022/09/04 09:11:00;;;;;;;8.65;4.07;;;19.90;61.80;;;;;;5041216;28;20052;-70
2022/09/04 09:14:00;;;;;;;9.10;3.80;;;20.00;61.60;;;;;;5027852;28;20694;-70
2022/09/04 09:16:34;;;;;;;8.77;3.42;;;20.00;62.10;;;;;;5049070;28;20518;-68
2022/09/04 09:19:36;;;;;;;10.90;3.95;;;20.10;61.40;;;;;;5048080;28;20083;-68
2022/09/04 09:22:09;;;;;;;7.20;3.78;;;20.20;61.60;;;;;;5036261;28;20149;-68
2022/09/04 09:24:50;;;;;;;7.10;3.72;;;20.30;61.30;;;;;;5008403;28;20061;-69
2022/09/04 09:27:29;;;;;;;10.25;3.90;;;20.40;61.30;;;;;;5037873;28;20045;-68
2022/09/04 09:30:07;;;;;;;10.13;4.00;;;20.50;60.90;;;;;;5048391;28;20086;-69
2022/09/04 09:32:52;;;;;;;7.40;4.00;;;20.50;60.80;;;;;;5044216;28;20113;-69
2022/09/04 09:35:53;;;;;;;6.40;3.47;;;20.70;60.10;;;;;;5045640;28;20060;-68
2022/09/04 09:38:29;;;;;;;5.32;3.60;;;20.80;60.20;;;;;;5030750;28;20037;-69
2022/09/04 09:41:40;;;;;;;6.05;3.60;;;20.90;59.80;;;;;;5039895;28;20052;-69
2022/09/04 09:44:20;;;;;;;7.60;3.58;;;21.00;59.40;;;;;;5013489;28;20037;-69
2022/09/04 09:46:54;;;;;;;8.88;3.58;;;21.10;59.10;;;;;;5047598;28;20063;-68
2022/09/04 09:50:01;;;;;;;7.38;3.60;;;21.30;58.40;;;;;;5034787;28;20459;-69
2022/09/04 09:52:51;;;;;;;7.00;3.85;;;21.40;58.20;;;;;;5030546;28;20057;-69
2022/09/04 09:55:46;;;;;;;5.63;3.45;;;21.50;58.10;;;;;;5020652;28;20486;-69
2022/09/04 09:58:12;;;;;;;7.25;4.60;;;21.70;57.60;;;;;;4986208;28;20059;-68
2022/09/04 10:00:45;;;;;;;9.40;4.25;;;21.80;57.50;;;;;;5040027;28;20414;-69
2022/09/04 10:03:42;;;;;;;9.05;3.72;;;22.00;57.30;;;;;;5035163;28;20072;-68
2022/09/04 10:06:26;;;;;;;6.28;3.40;;;22.10;56.70;;;;;;5035750;28;20574;-69
2022/09/04 10:09:03;;;;;;;5.75;3.55;;;22.20;56.70;;;;;;5055998;28;20482;-68
2022/09/04 10:11:48;;;;;;;7.00;3.63;;;22.30;56.30;;;;;;5063235;28;20494;-69
2022/09/04 10:14:14;;;;;;;7.45;3.95;;;22.40;56.40;;;;;;5025195;28;20107;-69
2022/09/04 10:16:59;;;;;;;5.07;3.40;;;22.50;56.10;;;;;;5047930;28;20062;-68
2022/09/04 10:19:28;;;;;;;7.68;3.40;;;22.60;55.40;;;;;;5047763;28;20515;-69
2022/09/04 10:22:11;;;;;;;6.55;3.63;;;22.70;55.60;;;;;;5030644;28;20045;-68
2022/09/04 10:24:58;;;;;;;6.32;3.60;;;22.90;55.20;;;;;;5028494;28;20052;-69
2022/09/04 10:27:29;;;;;;;7.88;3.60;;;23.00;54.90;;;;;;5042740;28;20056;-69
2022/09/04 10:30:07;;;;;;;6.68;3.67;;;23.10;54.80;;;;;;5042548;28;20188;-69
2022/09/04 10:32:51;;;;;;;7.03;3.70;;;23.20;54.50;;;;;;5045517;28;20496;-69
2022/09/04 10:35:20;;;;;;;6.53;3.33;;;23.40;54.30;;;;;;5060002;28;20448;-69
2022/09/04 10:38:36;;;;;;;4.70;3.03;;;23.50;54.30;;;;;;5049085;28;20045;-69
2022/09/04 10:41:28;;;;;;;6.80;3.58;;;23.60;54.20;;;;;;5005665;28;20103;-68
2022/09/04 10:44:14;;;;;;;9.20;3.15;;;23.70;52.80;;;;;;5047307;28;20869;-69
2022/09/04 10:47:04;;;;;;;5.85;3.58;;;23.70;53.00;;;;;;5042339;28;20053;-69
2022/09/04 10:49:52;;;;;;;7.95;3.63;;;23.90;52.90;;;;;;5050993;28;20068;-69
2022/09/04 10:52:47;;;;;;;5.13;3.47;;;24.00;52.60;;;;;;5052019;28;20045;-68
2022/09/04 10:55:25;;;;;;;7.03;3.17;;;24.20;52.20;;;;;;5036177;28;20521;-68
2022/09/04 10:58:13;;;;;;;;;;;24.20;51.40;;;;;;5041008;28;20508;-69
2022/09/04 11:01:17;;;;;;;5.57;3.25;;;24.20;51.60;;;;;;5034336;28;19923;-68
2022/09/04 11:04:01;;;;;;;9.73;3.30;;;24.40;50.90;;;;;;5046370;28;20788;-69
2022/09/04 11:06:52;;;;;;;6.72;3.50;;;24.60;50.90;;;;;;5036382;28;20049;-70
2022/09/04 11:09:39;;;;;;;7.28;3.08;;;24.80;50.20;;;;;;5046183;28;20093;-70
2022/09/04 11:12:11;;;;;;;7.32;3.22;;;24.90;50.00;;;;;;5042976;28;20053;-68
2022/09/04 11:14:47;;;;;;;11.45;3.47;;;24.90;49.40;;;;;;5050223;28;20041;-69
2022/09/04 11:18:08;;;;;;;5.70;3.38;;;25.00;48.90;;;;;;5041330;28;20045;-69
2022/09/04 11:20:56;;;;;;;8.95;3.17;;;25.00;48.80;;;;;;5002642;28;20049;-69
2022/09/04 11:23:31;;;;;;;6.18;2.85;;;25.30;49.90;;;;;;5048601;28;20040;-68
2022/09/04 11:26:35;;;;;;;6.55;3.50;;;25.30;48.20;;;;;;5050588;28;20138;-69
2022/09/04 11:29:19;;;;;;;4.32;3.00;;;25.40;48.10;;;;;;5046414;28;20083;-69
2022/09/04 11:31:58;;;;;;;6.10;3.30;;;25.40;48.40;;;;;;5040028;28;20550;-68
2022/09/04 11:34:55;;;;;;;6.50;3.15;;;25.60;48.50;;;;;;5056316;28;20044;-69
2022/09/04 11:37:42;;;;;;;5.25;2.83;;;25.70;47.90;;;;;;5030344;28;20056;-69
2022/09/04 11:40:32;;;;;;;7.80;3.05;;;26.00;48.20;;;;;;5043064;28;20120;-70
2022/09/04 11:43:26;;;;;;;5.88;2.90;;;26.00;47.60;;;;;;5050194;28;20463;-69
2022/09/04 11:46:32;;;;;;;4.38;2.72;;;26.10;46.80;;;;;;5032945;28;20479;-68
2022/09/04 11:49:16;;;;;;;5.72;2.88;;;26.10;47.00;;;;;;5042429;28;20053;-68
2022/09/04 11:52:21;;;;;;;6.30;3.00;;;26.20;47.70;;;;;;5048443;28;20439;-69
2022/09/04 11:55:01;;;;;;;5.90;2.80;;;26.30;46.80;;;;;;5019508;28;20437;-68
2022/09/04 11:57:49;;;;;;;6.40;2.90;;;26.40;46.70;;;;;;5041505;28;20059;-70
2022/09/04 12:00:15;;;;;;;;;;;26.50;46.50;;;;;;5029324;28;20044;-69
2022/09/04 12:03:34;;;;;;;6.13;3.00;;;26.60;46.10;;;;;;5047721;28;19917;-70
2022/09/04 12:06:14;;;;;;;5.93;2.55;;;26.50;45.90;;;;;;4953371;28;20082;-70
2022/09/04 12:09:03;;;;;;;6.20;2.85;;;26.50;45.30;;;;;;5043462;28;20568;-69
2022/09/04 12:11:54;;;;;;;4.70;3.00;;;26.70;45.80;;;;;;5035380;28;20479;-69
2022/09/04 12:14:50;;;;;;;3.65;2.72;;;26.90;46.20;;;;;;5049255;28;20040;-70
2022/09/04 12:17:55;;;;;;;5.28;2.92;;;27.00;44.80;;;;;;5014084;28;20052;-69
2022/09/04 12:20:44;;;;;;;5.35;2.40;;;27.10;45.90;;;;;;5018403;28;20037;-69
2022/09/04 12:23:25;;;;;;;9.07;2.75;;;27.20;44.60;;;;;;5042489;28;20053;-68
2022/09/04 12:26:25;;;;;;;5.40;2.65;;;27.20;45.00;;;;;;5026681;28;20056;-69
2022/09/04 12:29:14;;;;;;;4.28;2.67;;;27.30;45.60;;;;;;5050113;28;20053;-68
2022/09/04 12:32:17;;;;;;;5.35;2.80;;;27.40;45.00;;;;;;5041709;28;20068;-68
2022/09/04 12:35:03;;;;;;;5.45;2.63;;;27.50;44.30;;;;;;5044418;28;20048;-68
2022/09/04 12:37:45;;;;;;;4.82;2.60;;;27.70;44.50;;;;;;5030319;28;20056;-69
2022/09/04 12:40:29;;;;;;;6.55;2.53;;;27.70;44.90;;;;;;5057158;28;20041;-70
2022/09/04 12:43:04;;;;;;;4.22;2.33;;;27.90;43.90;;;;;;5043178;28;20049;-69
2022/09/04 12:45:44;;;;;;;5.47;2.63;;;27.80;43.10;;;;;;5048168;28;20045;-69
2022/09/04 12:48:13;;;;;;;9.27;2.88;;;28.00;43.50;;;;;;5044704;28;20115;-70
2022/09/04 12:51:03;;;;;;;6.00;2.38;;;28.20;43.30;;;;;;5044312;28;20049;-69
2022/09/04 12:53:31;;;;;;;5.22;2.70;;;28.40;42.60;;;;;;5037565;28;20063;-69
2022/09/04 12:56:09;;;;;;;3.67;2.60;;;28.40;42.60;;;;;;5049008;28;20055;-69
2022/09/04 12:59:28;;;;;;;3.92;2.33;;;28.50;42.10;;;;;;5035911;28;20049;-69
2022/09/04 13:02:08;;;;;;;4.72;2.30;;;28.70;42.90;;;;;;4948901;28;20525;-69
2022/09/04 13:05:05;;;;;;;8.10;2.72;;;28.80;41.70;;;;;;4953410;28;20050;-69
2022/09/04 13:07:57;;;;;;;6.50;2.47;;;29.10;41.40;;;;;;5009710;28;20474;-70
2022/09/04 13:10:42;;;;;;;5.60;2.35;;;29.90;39.70;;;;;;5041906;28;20046;-69
2022/09/04 13:13:25;;;;;;;3.28;2.05;;;30.80;39.10;;;;;;5050098;28;20049;-70
2022/09/04 13:15:59;;;;;;;5.32;2.28;;;31.40;38.20;;;;;;5041800;28;20068;-70
2022/09/04 13:18:33;;;;;;;5.38;1.90;;;31.80;37.70;;;;;;5034613;28;20042;-71
2022/09/04 13:21:18;;;;;;;3.92;1.88;;;32.00;36.30;;;;;;5048717;28;20120;-69
2022/09/04 13:24:13;;;;;;;4.43;1.92;;;32.20;36.70;;;;;;5035125;28;20052;-68
2022/09/04 13:27:03;;;;;;;4.28;1.85;;;32.40;36.70;;;;;;5030419;28;20068;-69
2022/09/04 13:29:35;;;;;;;3.35;1.70;;;32.40;36.70;;;;;;5046024;28;20128;-70
2022/09/04 13:32:29;;;;;;;3.60;1.90;;;32.50;35.90;;;;;;5046276;28;20061;-70
2022/09/04 13:35:23;;;;;;;3.58;1.85;;;31.60;37.00;;;;;;5057803;28;20496;-70
2022/09/04 13:38:17;;;;;;;3.95;1.90;;;31.00;37.40;;;;;;5032913;28;20129;-69
2022/09/04 13:41:22;;;;;;;2.38;1.70;;;31.00;37.30;;;;;;5044850;28;20055;-71
2022/09/04 13:43:48;;;;;;;4.65;1.92;;;31.40;37.70;;;;;;5044449;28;20048;-71
2022/09/04 13:46:27;;;;;;;8.02;1.88;;;31.40;37.70;;;;;;5056554;28;20041;-70
2022/09/04 13:48:57;;;;;;;4.90;2.15;;;31.30;38.20;;;;;;5044820;28;20048;-71
2022/09/04 13:51:31;;;;;;;6.00;1.92;;;31.50;36.60;;;;;;5042355;28;20137;-70
2022/09/04 13:54:29;;;;;;;5.40;1.95;;;32.00;37.60;;;;;;5045771;28;20045;-69
2022/09/04 13:57:05;;;;;;;4.38;1.90;;;32.30;36.80;;;;;;5025431;28;20045;-69
2022/09/04 13:59:31;;;;;;;4.97;2.13;;;32.20;36.70;;;;;;5043117;28;20156;-70
2022/09/04 14:01:59;;;;;;;7.20;2.33;;;32.40;37.00;;;;;;5047968;28;20063;-69
2022/09/04 14:04:34;;;;;;;8.23;2.70;;;32.40;37.20;;;;;;5039986;28;20044;-69
2022/09/04 14:07:05;;;;;;;4.47;2.00;;;32.00;37.10;;;;;;5028819;28;20056;-71
2022/09/04 14:09:31;;;;;;;5.63;1.88;;;31.70;37.70;;;;;;5023142;28;20561;-69
2022/09/04 14:12:06;;;;;;;3.90;2.08;;;31.40;38.20;;;;;;5038334;28;20059;-69
2022/09/04 14:14:33;;;;;;;4.47;2.10;;;31.40;38.20;;;;;;5043198;28;20486;-69
2022/09/04 14:16:59;;;;;;;5.13;2.42;;;31.30;38.60;;;;;;5030156;28;20041;-68